Time;durP1;ratioP1;P1;durP2;ratioP2;P2;SDS_P1;SDS_P2;PMS_P1;PMS_P2;Temp;Humidity;BMP_temperature;BMP_pressure;BME280_temperature;BME280_humidity;BME280_pressure;Samples;Min_cycle;Max_cycle;Signal;HPM_P1;HPM_P2
2022/03/29 00:00:00;;;;;;;;;32.75;30.00;;;;;;;;5033314;28;45567;-78
2022/03/29 00:02:25;;;;;;;;;35.00;32.00;;;;;;;;5029890;28;45393;-78
2022/03/29 00:04:50;;;;;;;;;41.00;34.50;;;;;;;;5029699;28;45367;-78
2022/03/29 00:07:15;;;;;;;;;40.75;33.25;;;;;;;;5029573;28;46283;-78
2022/03/29 00:09:41;;;;;;;;;34.00;29.25;;;;;;;;5029831;28;45539;-78
2022/03/29 00:12:06;;;;;;;;;44.00;33.75;;;;;;;;5032873;28;45273;-78
2022/03/29 00:14:31;;;;;;;;;35.25;32.25;;;;;;;;5027922;28;45336;-78
2022/03/29 00:16:56;;;;;;;;;39.25;32.00;;;;;;;;5030153;28;46272;-78
2022/03/29 00:19:21;;;;;;;;;37.25;29.50;;;;;;;;5033329;28;45496;-79
2022/03/29 00:21:47;;;;;;;;;31.00;28.50;;;;;;;;5032960;28;45309;-78
2022/03/29 00:24:12;;;;;;;;;34.75;31.75;;;;;;;;5017276;28;45265;-78
2022/03/29 00:26:37;;;;;;;;;33.25;27.00;;;;;;;;5017283;28;47605;-78
2022/03/29 00:29:03;;;;;;;;;32.50;30.75;;;;;;;;5032693;28;45494;-78
2022/03/29 00:31:28;;;;;;;;;27.50;22.25;;;;;;;;5034883;28;45452;-78
2022/03/29 00:33:53;;;;;;;;;30.25;28.50;;;;;;;;5033918;28;45471;-79
2022/03/29 00:36:18;;;;;;;;;39.25;34.00;;;;;;;;5034603;28;46274;-79
2022/03/29 00:38:46;;;;;;;;;28.00;25.75;;;;;;;;5036965;28;45391;-78
2022/03/29 00:41:12;;;;;;;;;33.50;29.25;;;;;;;;5033159;28;45459;-79
2022/03/29 00:43:37;;;;;;;;;37.50;33.50;;;;;;;;5034704;28;45508;-78
2022/03/29 00:46:03;;;;;;;;;33.00;28.25;;;;;;;;5032314;28;46394;-78
2022/03/29 00:48:28;;;;;;;;;33.75;30.25;;;;;;;;5032837;28;45614;-79
2022/03/29 00:50:54;;;;;;;;;37.25;33.25;;;;;;;;5015893;28;45420;-79
2022/03/29 00:53:20;;;;;;;;;37.00;31.50;;;;;;;;5027828;28;45336;-79
2022/03/29 00:55:45;;;;;;;;;42.25;34.50;;;;;;;;5032610;28;46947;-78
2022/03/29 00:58:12;;;;;;;;;41.75;35.00;;;;;;;;5031739;28;45435;-79
2022/03/29 01:00:37;;;;;;;;;48.00;38.25;;;;;;;;5032984;28;45535;-79
2022/03/29 01:03:03;;;;;;;;;37.50;31.25;;;;;;;;5035810;28;45594;-79
2022/03/29 01:05:32;;;;;;;;;43.50;36.00;;;;;;;;5037454;28;46165;-79
2022/03/29 01:07:58;;;;;;;;;44.00;38.00;;;;;;;;5035960;28;45909;-78
2022/03/29 01:10:23;;;;;;;;;47.00;37.50;;;;;;;;5032153;28;45512;-78
2022/03/29 01:12:49;;;;;;;;;42.50;34.00;;;;;;;;5032297;28;45450;-78
2022/03/29 01:15:16;;;;;;;;;44.75;36.50;;;;;;;;5034041;28;46192;-78
2022/03/29 01:17:43;;;;;;;;;35.00;32.50;;;;;;;;5021724;28;45480;-79
2022/03/29 01:20:17;;;;;;;;;44.00;35.75;;;;;;;;5030648;28;45507;-78
2022/03/29 01:22:46;;;;;;;;;38.50;31.75;;;;;;;;5031856;28;45474;-78
2022/03/29 01:25:19;;;;;;;;;31.25;30.75;;;;;;;;5031994;28;45290;-78
2022/03/29 01:27:45;;;;;;;;;43.25;31.75;;;;;;;;5031963;28;45668;-78
2022/03/29 01:30:11;;;;;;;;;41.00;35.00;;;;;;;;5034261;28;45280;-78
2022/03/29 01:32:38;;;;;;;;;42.00;32.00;;;;;;;;5034481;28;45599;-78
2022/03/29 01:35:05;;;;;;;;;32.00;25.00;;;;;;;;5032001;28;46389;-79
2022/03/29 01:37:30;;;;;;;;;38.25;34.00;;;;;;;;5031589;28;45567;-78
2022/03/29 01:39:56;;;;;;;;;33.25;29.50;;;;;;;;5014563;28;47319;-78
2022/03/29 01:42:21;;;;;;;;;28.50;25.25;;;;;;;;5033168;28;45747;-79
2022/03/29 01:44:46;;;;;;;;;39.00;31.00;;;;;;;;5034836;28;45620;-77
2022/03/29 01:47:11;;;;;;;;;39.75;31.00;;;;;;;;5031224;28;45537;-78
2022/03/29 01:49:37;;;;;;;;;32.25;27.75;;;;;;;;5032077;28;45592;-79
2022/03/29 01:52:03;;;;;;;;;19.00;16.75;;;;;;;;5031331;28;45617;-78
2022/03/29 01:54:29;;;;;;;;;32.50;27.25;;;;;;;;5031677;28;46097;-79
2022/03/29 01:56:54;;;;;;;;;29.00;19.75;;;;;;;;5027938;28;45460;-78
2022/03/29 01:59:19;;;;;;;;;35.50;29.50;;;;;;;;5031573;28;45464;-78
2022/03/29 02:01:46;;;;;;;;;35.25;27.75;;;;;;;;5031714;28;45557;-78
2022/03/29 02:04:12;;;;;;;;;26.50;22.25;;;;;;;;5030648;28;47079;-78
2022/03/29 02:06:37;;;;;;;;;28.25;26.25;;;;;;;;5031318;28;45546;-79
2022/03/29 02:09:03;;;;;;;;;34.75;27.25;;;;;;;;5017075;28;45424;-78
2022/03/29 02:11:29;;;;;;;;;37.75;28.00;;;;;;;;5032732;28;45336;-78
2022/03/29 02:13:54;;;;;;;;;27.00;26.00;;;;;;;;5031976;28;46421;-78
2022/03/29 02:16:20;;;;;;;;;35.25;27.75;;;;;;;;5032615;28;45479;-79
2022/03/29 02:18:45;;;;;;;;;32.75;28.50;;;;;;;;5034593;28;45663;-79
2022/03/29 02:21:13;;;;;;;;;32.00;27.50;;;;;;;;5027690;28;45314;-79
2022/03/29 02:23:38;;;;;;;;;27.50;24.50;;;;;;;;5015251;28;47265;-79
2022/03/29 02:26:04;;;;;;;;;31.50;27.50;;;;;;;;5031195;28;45541;-79
2022/03/29 02:28:29;;;;;;;;;28.75;27.00;;;;;;;;5031259;28;45620;-78
2022/03/29 02:30:54;;;;;;;;;31.50;26.75;;;;;;;;5031471;28;45392;-79
2022/03/29 02:33:19;;;;;;;;;26.00;25.00;;;;;;;;5032546;28;45467;-77
2022/03/29 02:35:45;;;;;;;;;29.25;24.50;;;;;;;;5034451;28;45546;-78
2022/03/29 02:38:11;;;;;;;;;27.50;25.00;;;;;;;;5030857;28;45483;-79
2022/03/29 02:40:37;;;;;;;;;26.75;23.25;;;;;;;;5029813;28;45368;-79
2022/03/29 02:43:02;;;;;;;;;34.25;25.50;;;;;;;;5031342;28;47164;-79
2022/03/29 02:45:27;;;;;;;;;27.00;21.25;;;;;;;;5020127;28;45459;-79
2022/03/29 02:47:54;;;;;;;;;24.00;20.00;;;;;;;;5041490;28;45362;-79
2022/03/29 02:50:19;;;;;;;;;25.50;24.50;;;;;;;;5045472;28;45491;-78
2022/03/29 02:52:49;;;;;;;;;24.25;22.25;;;;;;;;5044449;28;45357;-77
2022/03/29 02:55:15;;;;;;;;;26.25;21.75;;;;;;;;5039141;28;45477;-79
2022/03/29 02:57:41;;;;;;;;;26.75;22.25;;;;;;;;5036719;28;45422;-79
2022/03/29 03:00:07;;;;;;;;;24.75;23.00;;;;;;;;5045451;28;45426;-79
2022/03/29 03:02:32;;;;;;;;;22.50;18.50;;;;;;;;5039827;28;47232;-79
2022/03/29 03:04:58;;;;;;;;;26.75;24.00;;;;;;;;5043944;28;45319;-78
2022/03/29 03:07:23;;;;;;;;;25.50;22.00;;;;;;;;5039869;28;45366;-78
2022/03/29 03:09:48;;;;;;;;;16.50;14.50;;;;;;;;5037869;28;45446;-79
2022/03/29 03:12:14;;;;;;;;;26.75;24.00;;;;;;;;5036536;28;45430;-78
2022/03/29 03:14:39;;;;;;;;;29.75;25.25;;;;;;;;5049389;28;45372;-78
2022/03/29 03:17:04;;;;;;;;;32.25;24.50;;;;;;;;5041806;28;45387;-79
2022/03/29 03:19:29;;;;;;;;;27.25;24.50;;;;;;;;5037808;28;45506;-78
2022/03/29 03:21:54;;;;;;;;;26.00;22.75;;;;;;;;5051151;28;46343;-77
2022/03/29 03:24:20;;;;;;;;;23.50;16.75;;;;;;;;5038364;28;45358;-78
2022/03/29 03:26:45;;;;;;;;;29.25;23.25;;;;;;;;5039349;28;45387;-78
2022/03/29 03:29:10;;;;;;;;;27.00;19.75;;;;;;;;5038767;28;45534;-79
2022/03/29 03:31:35;;;;;;;;;31.50;27.00;;;;;;;;5039142;28;46490;-79
2022/03/29 03:34:01;;;;;;;;;24.00;21.00;;;;;;;;5050123;28;45452;-85
2022/03/29 03:36:27;;;;;;;;;28.00;21.75;;;;;;;;5035315;28;45461;-88
2022/03/29 03:38:52;;;;;;;;;27.00;23.50;;;;;;;;5055827;28;45239;-88
2022/03/29 03:41:17;;;;;;;;;29.75;24.50;;;;;;;;5051637;28;46964;-91
2022/03/29 03:43:43;;;;;;;;;29.25;25.50;;;;;;;;5046937;28;45381;-91
2022/03/29 03:46:08;;;;;;;;;20.00;18.25;;;;;;;;5040461;28;45497;-89
2022/03/29 03:48:33;;;;;;;;;22.50;19.75;;;;;;;;5048727;28;45385;-89
2022/03/29 03:50:58;;;;;;;;;24.25;20.25;;;;;;;;5045624;28;46174;-90
2022/03/29 03:53:23;;;;;;;;;27.00;24.00;;;;;;;;5043855;28;45786;-79
2022/03/29 03:55:49;;;;;;;;;31.25;28.25;;;;;;;;5041704;28;45396;-77
2022/03/29 03:58:14;;;;;;;;;29.75;26.50;;;;;;;;5048537;28;45219;-80
2022/03/29 04:00:39;;;;;;;;;22.25;20.75;;;;;;;;5035339;28;46113;-80
2022/03/29 04:03:04;;;;;;;;;35.25;26.00;;;;;;;;5049102;28;45335;-80
2022/03/29 04:05:30;;;;;;;;;26.00;24.25;;;;;;;;5038691;28;45288;-80
2022/03/29 04:07:55;;;;;;;;;25.25;20.50;;;;;;;;5020749;28;45459;-80
2022/03/29 04:10:20;;;;;;;;;29.50;24.00;;;;;;;;5019849;28;46122;-80
2022/03/29 04:12:45;;;;;;;;;6.50;2.75;;;;;;;;5036068;28;45334;-80
2022/03/29 04:15:11;;;;;;;;;25.25;22.25;;;;;;;;5052636;28;45374;-79
2022/03/29 04:17:36;;;;;;;;;22.50;19.75;;;;;;;;5038009;28;45382;-79
2022/03/29 04:20:02;;;;;;;;;26.75;24.75;;;;;;;;5037640;28;45549;-80
2022/03/29 04:22:28;;;;;;;;;31.25;28.50;;;;;;;;5037866;28;45423;-81
2022/03/29 04:24:53;;;;;;;;;28.50;25.75;;;;;;;;5037517;28;45416;-81
2022/03/29 04:27:18;;;;;;;;;30.00;26.00;;;;;;;;5039286;28;45405;-81
2022/03/29 04:29:44;;;;;;;;;35.25;29.75;;;;;;;;5052594;28;45400;-81
2022/03/29 04:32:09;;;;;;;;;22.25;19.50;;;;;;;;5040685;28;45478;-80
2022/03/29 04:34:34;;;;;;;;;38.25;31.25;;;;;;;;5037443;28;45431;-80
2022/03/29 04:36:59;;;;;;;;;39.75;32.25;;;;;;;;5038149;28;45769;-80
2022/03/29 04:39:25;;;;;;;;;37.50;29.50;;;;;;;;5034649;28;45950;-80
2022/03/29 04:41:53;;;;;;;;;28.25;26.00;;;;;;;;5050659;28;45403;-80
2022/03/29 04:44:18;;;;;;;;;35.25;32.25;;;;;;;;5040236;28;45408;-81
2022/03/29 04:46:44;;;;;;;;;37.50;27.00;;;;;;;;5041733;28;45581;-79
2022/03/29 04:49:09;;;;;;;;;40.50;25.00;;;;;;;;5047073;28;46151;-80
2022/03/29 04:51:34;;;;;;;;;38.50;32.75;;;;;;;;5033709;28;45342;-80
2022/03/29 04:54:01;;;;;;;;;30.00;26.25;;;;;;;;5018889;28;45450;-80
2022/03/29 04:56:26;;;;;;;;;33.50;29.25;;;;;;;;5038144;28;45347;-80
2022/03/29 04:58:51;;;;;;;;;28.75;23.50;;;;;;;;5018762;28;45604;-80
2022/03/29 05:01:16;;;;;;;;;36.00;31.00;;;;;;;;5040084;28;45429;-81
2022/03/29 05:03:42;;;;;;;;;34.00;27.50;;;;;;;;5038157;28;45528;-81
2022/03/29 05:06:07;;;;;;;;;30.25;26.50;;;;;;;;5039259;28;45344;-80
2022/03/29 05:08:32;;;;;;;;;32.25;26.75;;;;;;;;5041056;28;46594;-80
2022/03/29 05:10:57;;;;;;;;;29.50;24.75;;;;;;;;5041239;28;45567;-81
2022/03/29 05:13:23;;;;;;;;;21.75;18.25;;;;;;;;5040909;28;45452;-81
2022/03/29 05:15:48;;;;;;;;;27.75;25.25;;;;;;;;5041235;28;45328;-81
2022/03/29 05:18:13;;;;;;;;;32.50;26.25;;;;;;;;5044566;28;45525;-86
2022/03/29 05:20:39;;;;;;;;;35.50;30.00;;;;;;;;5033102;28;45617;-89
2022/03/29 05:23:06;;;;;;;;;31.00;27.50;;;;;;;;5040551;28;45520;-86
2022/03/29 05:25:32;;;;;;;;;29.25;24.75;;;;;;;;5036394;28;45553;-86
2022/03/29 05:27:58;;;;;;;;;29.25;27.25;;;;;;;;5040749;28;45457;-81
2022/03/29 05:30:23;;;;;;;;;34.75;27.75;;;;;;;;5035670;28;45420;-92
2022/03/29 05:32:57;;;;;;;;;25.00;23.25;;;;;;;;5038806;28;45308;-86
2022/03/29 05:35:25;;;;;;;;;31.75;26.00;;;;;;;;5048299;28;45448;-90
2022/03/29 05:37:50;;;;;;;;;28.50;24.75;;;;;;;;5047465;28;45384;-85
2022/03/29 05:40:16;;;;;;;;;29.50;27.00;;;;;;;;5040319;28;45315;-89
2022/03/29 05:42:42;;;;;;;;;29.50;27.25;;;;;;;;5039800;28;45370;-86
2022/03/29 05:45:08;;;;;;;;;33.75;26.75;;;;;;;;5061716;28;45453;-92
2022/03/29 05:50:17;;;;;;;;;31.00;28.50;;;;;;;;5043911;28;45541;-91
2022/03/29 05:52:42;;;;;;;;;29.50;28.50;;;;;;;;5043775;28;45437;-92
2022/03/29 05:55:07;;;;;;;;;23.25;21.50;;;;;;;;5041451;28;45312;-79
2022/03/29 05:57:33;;;;;;;;;28.50;26.50;;;;;;;;5039458;28;46337;-79
2022/03/29 05:59:58;;;;;;;;;35.25;29.00;;;;;;;;5038574;28;45388;-80
2022/03/29 06:02:24;;;;;;;;;30.00;26.75;;;;;;;;5038468;28;45618;-80
2022/03/29 06:04:50;;;;;;;;;34.50;29.75;;;;;;;;5039445;28;45552;-82
2022/03/29 06:07:16;;;;;;;;;31.00;27.00;;;;;;;;5038399;28;46290;-88
2022/03/29 06:09:41;;;;;;;;;27.75;25.25;;;;;;;;5040985;28;45321;-89
2022/03/29 06:12:07;;;;;;;;;25.50;18.00;;;;;;;;5042309;28;45283;-79
2022/03/29 06:14:32;;;;;;;;;40.50;32.75;;;;;;;;5041820;28;45438;-83
2022/03/29 06:16:57;;;;;;;;;35.00;29.50;;;;;;;;5040971;28;45934;-80
2022/03/29 06:19:23;;;;;;;;;30.75;28.75;;;;;;;;5047547;28;45536;-79
2022/03/29 06:21:48;;;;;;;;;31.25;28.75;;;;;;;;5043397;28;45436;-79
2022/03/29 06:24:13;;;;;;;;;34.75;29.25;;;;;;;;5033402;28;45509;-77
2022/03/29 06:26:39;;;;;;;;;32.00;26.50;;;;;;;;5052434;28;46471;-80
2022/03/29 06:29:10;;;;;;;;;31.75;26.25;;;;;;;;5026622;28;45293;-80
2022/03/29 06:31:36;;;;;;;;;28.50;22.75;;;;;;;;5024067;28;45455;-79
2022/03/29 06:34:02;;;;;;;;;34.00;28.50;;;;;;;;5041674;28;45494;-79
2022/03/29 06:36:27;;;;;;;;;36.25;30.75;;;;;;;;5017738;28;47163;-80
2022/03/29 06:38:52;;;;;;;;;46.00;32.75;;;;;;;;5040816;28;45470;-80
2022/03/29 06:41:18;;;;;;;;;35.50;28.00;;;;;;;;5037251;28;45276;-80
2022/03/29 06:43:44;;;;;;;;;31.00;26.75;;;;;;;;5034110;28;45533;-80
2022/03/29 06:46:09;;;;;;;;;32.25;29.75;;;;;;;;5028732;28;46032;-82
2022/03/29 06:48:36;;;;;;;;;38.25;30.25;;;;;;;;5033896;28;45218;-80
2022/03/29 06:51:02;;;;;;;;;32.50;24.25;;;;;;;;5023319;28;45426;-80
2022/03/29 06:53:27;;;;;;;;;35.50;32.25;;;;;;;;5038507;28;45503;-81
2022/03/29 06:55:53;;;;;;;;;40.00;27.00;;;;;;;;5038122;28;45492;-82
2022/03/29 06:58:19;;;;;;;;;28.75;25.50;;;;;;;;5037227;28;45508;-81
2022/03/29 07:00:45;;;;;;;;;34.75;29.00;;;;;;;;5035249;28;45372;-82
2022/03/29 07:03:10;;;;;;;;;31.25;26.25;;;;;;;;5035165;28;45541;-82
2022/03/29 07:05:38;;;;;;;;;37.50;28.00;;;;;;;;5038556;28;46202;-84
2022/03/29 07:08:04;;;;;;;;;34.25;30.25;;;;;;;;5039709;28;45235;-85
2022/03/29 07:13:13;;;;;;;;;40.00;34.50;;;;;;;;5048195;28;45636;-86
2022/03/29 07:15:38;;;;;;;;;38.00;29.25;;;;;;;;5035276;28;46172;-85
2022/03/29 07:18:04;;;;;;;;;38.75;31.25;;;;;;;;5019651;28;45351;-85
2022/03/29 07:20:29;;;;;;;;;34.25;31.25;;;;;;;;5048736;28;45217;-90
2022/03/29 07:22:56;;;;;;;;;30.00;25.25;;;;;;;;5049257;28;45272;-88
2022/03/29 07:25:22;;;;;;;;;30.25;27.50;;;;;;;;5040258;28;46399;-86
2022/03/29 07:27:49;;;;;;;;;34.25;29.75;;;;;;;;5048285;28;45217;-86
2022/03/29 07:30:15;;;;;;;;;39.25;31.50;;;;;;;;5035079;28;45454;-87
2022/03/29 07:32:47;;;;;;;;;30.25;28.75;;;;;;;;5040521;28;45465;-87
2022/03/29 07:35:14;;;;;;;;;30.50;26.00;;;;;;;;5040893;28;46624;-86
2022/03/29 07:37:40;;;;;;;;;36.25;27.25;;;;;;;;5043978;28;45471;-87
2022/03/29 07:40:08;;;;;;;;;36.25;29.75;;;;;;;;5053121;28;45503;-87
2022/03/29 07:42:35;;;;;;;;;37.75;25.00;;;;;;;;5035830;28;45373;-88
2022/03/29 07:45:03;;;;;;;;;40.00;35.25;;;;;;;;5051296;28;46368;-87
2022/03/29 07:47:29;;;;;;;;;40.25;30.50;;;;;;;;5035429;28;45537;-88
2022/03/29 07:49:55;;;;;;;;;35.75;30.75;;;;;;;;5036317;28;45444;-89
2022/03/29 07:52:20;;;;;;;;;37.25;33.00;;;;;;;;5044507;28;45385;-87
2022/03/29 07:54:45;;;;;;;;;34.00;32.00;;;;;;;;5043455;28;47315;-88
2022/03/29 07:57:11;;;;;;;;;34.25;29.50;;;;;;;;5057497;28;45535;-89
2022/03/29 07:59:37;;;;;;;;;35.00;31.50;;;;;;;;5041558;28;45438;-89
2022/03/29 08:02:02;;;;;;;;;39.25;31.75;;;;;;;;5039424;28;45601;-89
2022/03/29 08:04:28;;;;;;;;;32.75;30.25;;;;;;;;5044826;28;46007;-87
2022/03/29 08:06:53;;;;;;;;;32.25;27.75;;;;;;;;5045719;28;45449;-89
2022/03/29 08:09:18;;;;;;;;;34.00;28.25;;;;;;;;5052404;28;45513;-89
2022/03/29 08:11:43;;;;;;;;;29.00;27.75;;;;;;;;5050333;28;45329;-90
2022/03/29 08:14:09;;;;;;;;;34.50;29.00;;;;;;;;5053858;28;45578;-89
2022/03/29 08:16:34;;;;;;;;;30.25;27.75;;;;;;;;5058780;28;45434;-87
2022/03/29 08:19:00;;;;;;;;;46.25;34.25;;;;;;;;5049188;28;45895;-87
2022/03/29 08:24:10;;;;;;;;;38.50;34.00;;;;;;;;5059560;28;45325;-87
2022/03/29 08:26:35;;;;;;;;;47.50;38.00;;;;;;;;5059127;28;45378;-87
2022/03/29 08:29:00;;;;;;;;;34.50;31.75;;;;;;;;5035802;28;45398;-88
2022/03/29 08:31:26;;;;;;;;;32.50;28.25;;;;;;;;5056514;28;45236;-88
2022/03/29 08:33:51;;;;;;;;;34.25;26.75;;;;;;;;5052528;28;45589;-86
2022/03/29 08:36:16;;;;;;;;;43.75;36.50;;;;;;;;5045837;28;44983;-86
2022/03/29 08:38:42;;;;;;;;;32.25;28.00;;;;;;;;5033116;28;45274;-87
2022/03/29 08:41:08;;;;;;;;;39.75;33.00;;;;;;;;5060259;28;45364;-86
2022/03/29 08:43:33;;;;;;;;;35.50;31.50;;;;;;;;5053705;28;45407;-87
2022/03/29 08:45:59;;;;;;;;;36.75;30.25;;;;;;;;5050526;28;44922;-86
2022/03/29 08:48:25;;;;;;;;;38.50;32.75;;;;;;;;5053747;28;45349;-87
2022/03/29 08:50:51;;;;;;;;;32.75;29.00;;;;;;;;5054847;28;45780;-84
2022/03/29 08:53:17;;;;;;;;;32.75;26.75;;;;;;;;5055776;28;45348;-87
2022/03/29 08:55:44;;;;;;;;;33.00;30.25;;;;;;;;5051837;28;45307;-86
2022/03/29 08:58:09;;;;;;;;;37.00;32.25;;;;;;;;5046715;28;45351;-88
2022/03/29 09:00:35;;;;;;;;;32.75;29.50;;;;;;;;5042356;28;45364;-85
2022/03/29 09:03:00;;;;;;;;;42.75;33.75;;;;;;;;5043806;28;46308;-85
2022/03/29 09:05:29;;;;;;;;;36.50;31.25;;;;;;;;5045667;28;45378;-85
2022/03/29 09:07:56;;;;;;;;;39.75;32.00;;;;;;;;5046174;28;45403;-85
2022/03/29 09:10:22;;;;;;;;;36.50;32.75;;;;;;;;5045787;28;45370;-85
2022/03/29 09:12:47;;;;;;;;;33.25;30.50;;;;;;;;5042926;28;45488;-83
2022/03/29 09:15:13;;;;;;;;;37.00;32.00;;;;;;;;5042581;28;45352;-86
2022/03/29 09:17:43;;;;;;;;;39.00;32.75;;;;;;;;5044246;28;45190;-87
2022/03/29 09:20:10;;;;;;;;;31.25;31.25;;;;;;;;5043751;28;45323;-87
2022/03/29 09:22:39;;;;;;;;;33.25;28.75;;;;;;;;5048371;28;45341;-86
2022/03/29 09:25:05;;;;;;;;;33.25;29.50;;;;;;;;5044056;28;45395;-85
2022/03/29 09:27:30;;;;;;;;;38.75;33.25;;;;;;;;5038196;28;45290;-88
2022/03/29 09:30:06;;;;;;;;;32.75;31.25;;;;;;;;5057217;28;45314;-80
2022/03/29 09:32:31;;;;;;;;;35.00;30.00;;;;;;;;5039507;28;46278;-85
2022/03/29 09:35:04;;;;;;;;;34.25;27.50;;;;;;;;5018761;28;45301;-87
2022/03/29 09:37:34;;;;;;;;;35.25;32.25;;;;;;;;5046067;28;45478;-87
2022/03/29 09:39:59;;;;;;;;;32.00;29.00;;;;;;;;5059190;28;44824;-87
2022/03/29 09:42:24;;;;;;;;;27.00;22.50;;;;;;;;5042705;28;46345;-86
2022/03/29 09:44:51;;;;;;;;;43.25;34.75;;;;;;;;5041789;28;45324;-85
2022/03/29 09:47:20;;;;;;;;;34.25;31.00;;;;;;;;5041959;28;45432;-85
2022/03/29 09:49:48;;;;;;;;;30.25;28.25;;;;;;;;5040410;28;45537;-86
2022/03/29 09:52:15;;;;;;;;;34.25;29.75;;;;;;;;5041009;28;47012;-87
2022/03/29 09:54:41;;;;;;;;;34.25;32.75;;;;;;;;5038801;28;45427;-85
2022/03/29 09:57:06;;;;;;;;;22.50;18.75;;;;;;;;5057584;28;45370;-87
2022/03/29 09:59:32;;;;;;;;;43.50;34.75;;;;;;;;5041984;28;45287;-86
2022/03/29 10:01:57;;;;;;;;;28.50;22.75;;;;;;;;5041860;28;47024;-86
2022/03/29 10:04:24;;;;;;;;;39.25;29.50;;;;;;;;5041214;28;45381;-86
2022/03/29 10:06:52;;;;;;;;;36.25;31.50;;;;;;;;5039663;28;45375;-87
2022/03/29 10:09:27;;;;;;;;;30.00;28.00;;;;;;;;5038155;28;45352;-87
2022/03/29 10:11:55;;;;;;;;;43.75;35.00;;;;;;;;5042417;28;46205;-86
2022/03/29 10:14:21;;;;;;;;;37.25;34.00;;;;;;;;5043632;28;45459;-86
2022/03/29 10:16:47;;;;;;;;;39.75;32.50;;;;;;;;5047846;28;45345;-87
2022/03/29 10:19:13;;;;;;;;;40.50;35.50;;;;;;;;5043154;28;45243;-88
2022/03/29 10:21:38;;;;;;;;;38.00;31.75;;;;;;;;5038254;28;45327;-87
2022/03/29 10:24:03;;;;;;;;;38.75;30.00;;;;;;;;5039400;28;45389;-87
2022/03/29 10:26:28;;;;;;;;;37.50;33.00;;;;;;;;5041666;28;45450;-86
2022/03/29 10:28:54;;;;;;;;;39.25;33.25;;;;;;;;5042358;28;45703;-86
2022/03/29 10:31:36;;;;;;;;;32.25;30.25;;;;;;;;5037378;28;45321;-84
2022/03/29 10:34:12;;;;;;;;;33.50;29.75;;;;;;;;5051104;28;45469;-85
2022/03/29 10:36:56;;;;;;;;;36.50;28.25;;;;;;;;5021545;28;45486;-84
2022/03/29 10:39:25;;;;;;;;;35.00;32.75;;;;;;;;5036467;28;45712;-85
2022/03/29 10:41:50;;;;;;;;;34.00;30.50;;;;;;;;5042665;28;47129;-84
2022/03/29 10:44:16;;;;;;;;;29.00;23.75;;;;;;;;5041626;28;45478;-85
2022/03/29 10:46:41;;;;;;;;;36.00;30.25;;;;;;;;5042104;28;45171;-84
2022/03/29 10:49:22;;;;;;;;;42.25;33.25;;;;;;;;5041698;28;45536;-85
2022/03/29 10:51:53;;;;;;;;;30.00;26.25;;;;;;;;5050144;28;46151;-85
2022/03/29 10:54:29;;;;;;;;;32.00;24.50;;;;;;;;5038353;28;45506;-84
2022/03/29 10:56:56;;;;;;;;;34.00;31.50;;;;;;;;5033679;28;45363;-85
2022/03/29 10:59:22;;;;;;;;;30.00;25.00;;;;;;;;5039995;28;45532;-84
2022/03/29 11:02:05;;;;;;;;;32.50;28.50;;;;;;;;5037919;28;47306;-83
2022/03/29 11:04:31;;;;;;;;;33.00;29.00;;;;;;;;5038986;28;45490;-84
2022/03/29 11:07:05;;;;;;;;;42.50;33.00;;;;;;;;5038353;28;45487;-77
2022/03/29 11:09:31;;;;;;;;;31.75;29.50;;;;;;;;5019034;28;45334;-84
2022/03/29 11:11:56;;;;;;;;;39.75;32.75;;;;;;;;5039239;28;45350;-83
2022/03/29 11:14:27;;;;;;;;;31.50;28.50;;;;;;;;5038250;28;45531;-82
2022/03/29 11:17:13;;;;;;;;;38.25;31.50;;;;;;;;5037686;28;45414;-78
2022/03/29 11:19:48;;;;;;;;;42.25;33.00;;;;;;;;5019563;28;47776;-78
2022/03/29 11:22:41;;;;;;;;;41.00;33.75;;;;;;;;5037824;28;46859;-80
2022/03/29 11:25:09;;;;;;;;;41.00;30.50;;;;;;;;5038074;28;45427;-79
2022/03/29 11:27:36;;;;;;;;;38.75;33.25;;;;;;;;5033636;28;45271;-79
2022/03/29 11:30:03;;;;;;;;;47.00;36.75;;;;;;;;5037013;28;45301;-80
2022/03/29 11:32:29;;;;;;;;;30.50;26.50;;;;;;;;5037436;28;47185;-80
2022/03/29 11:34:58;;;;;;;;;34.50;27.75;;;;;;;;5040977;28;45540;-80
2022/03/29 11:37:27;;;;;;;;;33.75;31.00;;;;;;;;5027011;28;45415;-80
2022/03/29 11:39:52;;;;;;;;;37.00;31.25;;;;;;;;5036158;28;45507;-78
2022/03/29 11:42:17;;;;;;;;;29.25;28.25;;;;;;;;5034270;28;47343;-79
2022/03/29 11:44:46;;;;;;;;;38.00;31.50;;;;;;;;5038420;28;45294;-85
2022/03/29 11:47:11;;;;;;;;;40.25;32.00;;;;;;;;5038262;28;45482;-80
2022/03/29 11:49:39;;;;;;;;;29.75;24.00;;;;;;;;5036658;28;45459;-78
2022/03/29 11:52:06;;;;;;;;;29.25;26.50;;;;;;;;5018764;28;47918;-79
2022/03/29 11:54:37;;;;;;;;;36.25;33.00;;;;;;;;5032910;28;45391;-79
2022/03/29 11:57:12;;;;;;;;;31.00;25.50;;;;;;;;5036831;28;45274;-81
2022/03/29 11:59:37;;;;;;;;;35.00;30.75;;;;;;;;5051821;28;45315;-80
2022/03/29 12:02:03;;;;;;;;;24.75;22.25;;;;;;;;5045171;28;46272;-90
2022/03/29 12:04:31;;;;;;;;;26.75;25.25;;;;;;;;5047380;28;45248;-91
2022/03/29 12:06:57;;;;;;;;;33.25;25.00;;;;;;;;5046321;28;45447;-90
2022/03/29 12:17:08;;;;;;;;;37.25;33.75;;;;;;;;5484563;22;45561;-90
2022/03/29 12:19:34;;;;;;;;;37.00;28.75;;;;;;;;5327067;22;45515;-89
2022/03/29 12:22:02;;;;;;;;;32.00;24.50;;;;;;;;5080325;27;46334;-92
2022/03/29 12:24:31;;;;;;;;;35.00;27.75;;;;;;;;5081078;27;45334;-90
2022/03/29 12:27:02;;;;;;;;;32.00;28.75;;;;;;;;5062458;28;45335;-90
2022/03/29 12:29:28;;;;;;;;;35.75;32.00;;;;;;;;5087093;28;45263;-90
2022/03/29 12:31:54;;;;;;;;;31.50;26.75;;;;;;;;5087503;27;47295;-90
2022/03/29 12:34:21;;;;;;;;;32.00;29.00;;;;;;;;5086223;27;45310;-91
2022/03/29 12:36:56;;;;;;;;;35.00;27.50;;;;;;;;5084891;27;45431;-90
2022/03/29 12:39:22;;;;;;;;;30.50;27.00;;;;;;;;5082694;27;45498;-90
2022/03/29 12:41:47;;;;;;;;;43.50;32.50;;;;;;;;5082675;27;46173;-90
2022/03/29 12:44:14;;;;;;;;;36.50;32.00;;;;;;;;5081373;28;45793;-91
2022/03/29 12:46:40;;;;;;;;;43.00;32.50;;;;;;;;5081063;27;45472;-90
2022/03/29 12:49:06;;;;;;;;;37.75;33.00;;;;;;;;5072410;28;45227;-90
2022/03/29 12:51:35;;;;;;;;;37.25;30.00;;;;;;;;5085309;28;46590;-90
2022/03/29 12:54:06;;;;;;;;;38.25;31.25;;;;;;;;5080730;27;45449;-90
2022/03/29 12:56:34;;;;;;;;;33.50;30.00;;;;;;;;5081730;27;45223;-91
2022/03/29 12:59:00;;;;;;;;;36.75;30.75;;;;;;;;5080306;28;45493;-90
2022/03/29 13:01:30;;;;;;;;;33.00;30.00;;;;;;;;5078090;27;47404;-89
2022/03/29 13:04:08;;;;;;;;;44.00;31.00;;;;;;;;5076516;27;45377;-89
2022/03/29 13:06:41;;;;;;;;;37.25;29.75;;;;;;;;5062148;28;45485;-89
2022/03/29 13:09:06;;;;;;;;;38.00;30.50;;;;;;;;5076676;28;45298;-88
2022/03/29 13:11:32;;;;;;;;;43.50;31.00;;;;;;;;5076858;27;46252;-90
2022/03/29 13:14:07;;;;;;;;;36.25;32.50;;;;;;;;5075306;28;45478;-88
2022/03/29 13:16:32;;;;;;;;;40.25;35.00;;;;;;;;5075782;27;45266;-87
2022/03/29 13:18:58;;;;;;;;;34.25;32.25;;;;;;;;5075679;27;45544;-87
2022/03/29 13:21:25;;;;;;;;;32.00;29.75;;;;;;;;5074749;27;47284;-88
2022/03/29 13:23:50;;;;;;;;;34.00;31.00;;;;;;;;5076025;27;45454;-89
2022/03/29 13:26:17;;;;;;;;;37.75;30.50;;;;;;;;5079088;28;45354;-88
2022/03/29 13:28:43;;;;;;;;;42.00;31.50;;;;;;;;5079973;27;45366;-89
2022/03/29 13:31:10;;;;;;;;;33.50;28.25;;;;;;;;5082505;27;46359;-88
2022/03/29 13:33:36;;;;;;;;;34.75;29.25;;;;;;;;5078685;27;45242;-88
2022/03/29 13:36:09;;;;;;;;;36.00;32.25;;;;;;;;5085771;27;45433;-89
2022/03/29 13:38:34;;;;;;;;;31.50;29.75;;;;;;;;5084217;28;45228;-88
2022/03/29 13:40:59;;;;;;;;;41.75;33.25;;;;;;;;5082024;27;47761;-87
2022/03/29 13:43:25;;;;;;;;;38.25;32.25;;;;;;;;5079205;28;45449;-87
2022/03/29 13:45:50;;;;;;;;;32.25;28.50;;;;;;;;5067981;28;45367;-88
2022/03/29 13:48:15;;;;;;;;;37.75;32.00;;;;;;;;5082556;28;44770;-88
2022/03/29 13:50:41;;;;;;;;;41.25;33.00;;;;;;;;5082661;28;45338;-89
2022/03/29 13:53:07;;;;;;;;;36.75;31.25;;;;;;;;5082941;27;45315;-89
2022/03/29 13:55:34;;;;;;;;;35.25;32.50;;;;;;;;5081942;27;45284;-88
2022/03/29 13:58:00;;;;;;;;;34.25;28.50;;;;;;;;5083190;27;45322;-87
2022/03/29 14:00:25;;;;;;;;;33.75;30.00;;;;;;;;5081965;27;47080;-88
2022/03/29 14:02:50;;;;;;;;;23.75;22.25;;;;;;;;5066384;27;45470;-88
2022/03/29 14:05:16;;;;;;;;;32.75;32.00;;;;;;;;5071305;28;45291;-85
2022/03/29 14:07:41;;;;;;;;;31.25;26.00;;;;;;;;5065800;28;45306;-86
2022/03/29 14:10:06;;;;;;;;;24.25;20.25;;;;;;;;5067767;28;45595;-89
2022/03/29 14:12:31;;;;;;;;;20.75;18.25;;;;;;;;5077555;27;45363;-74
2022/03/29 14:14:57;;;;;;;;;23.50;18.00;;;;;;;;5078572;27;45310;-87
2022/03/29 14:17:22;;;;;;;;;22.00;19.00;;;;;;;;5085323;28;45373;-86
2022/03/29 14:19:50;;;;;;;;;21.50;17.50;;;;;;;;5083710;28;45405;-85
2022/03/29 14:22:15;;;;;;;;;18.75;16.25;;;;;;;;5079889;27;45448;-85
2022/03/29 14:24:41;;;;;;;;;17.00;16.25;;;;;;;;5077237;27;45453;-85
2022/03/29 14:27:06;;;;;;;;;20.75;15.75;;;;;;;;5060248;28;45238;-87